Weather observations for the past three days for
Hardin County Airport
Imperial (Metric)
Date Time (edt) Wind (mph) Vis. (mi.) Weather Sky Cond. Temperature (ºF) Relative Humidity Wind Chill (°F) Heat Index (°F) Pressure Precipitation (in)
Air Dwpt 6 hour altimeter (in) sea level (mb) 1 hr 3 hr 6 hr
Max. Min.
31 22:55 Vrbl 6 G 17 10.00 Fair CLR 78.8 73.4 84% 82 30.02 0.0
31 22:35 S 10 10.00 Fair CLR 77 73.4 89% 78 30.01 0.0
31 22:15 S 9 10.00 Fair CLR 77 75.2 94% 78 30.02 0.0
31 21:55 S 10 10.00 Fair CLR 78.8 75.2 89% 82 30.02 0.0
31 21:35 S 7 10.00 A Few Clouds FEW075 FEW110 77 75.2 94% 78 30.03 0.0
31 21:15 SE 5 10.00 A Few Clouds FEW075 FEW110 77 75.2 94% 78 30.05 0.0
31 20:55 SE 5 10.00 Partly Cloudy SCT110 75.2 75.2 100% 73 30.05 0.0
31 20:35 Calm 10.00 Fair CLR 75.2 75.2 100% 73 30.05 0.0
31 20:15 Calm 10.00 Fair CLR 78.8 75.2 89% 82 30.05 0.0
31 19:35 Calm 10.00 A Few Clouds FEW120 80.6 77 89% 87 30.05 0.0
31 19:15 Calm 10.00 Fair CLR 80.6 75.2 84% 86 30.05 0.0
31 18:55 Calm 10.00 A Few Clouds FEW120 80.6 75.2 84% 86 30.05 0.0
31 18:35 Calm 10.00 Fair CLR 0 0 0% 0 0.0
31 18:15 SW 5 10.00 Fair CLR 82.4 75.2 79% 89 30.04 0.0
31 17:55 SW 7 10.00 Fair CLR 82.4 75.2 79% 89 30.04 0.0
31 17:35 SW 7 10.00 Fair CLR 82.4 75.2 79% 89 30.03 0.0
31 17:15 SW 7 10.00 Fair CLR 82.4 75.2 79% 89 30.03 0.0
31 16:55 SW 6 10.00 Fair CLR 82.4 73.4 74% 88 30.03 0.0
31 16:35 SW 6 10.00 Fair CLR 82.4 73.4 74% 88 30.04 0.0
31 16:15 SW 9 10.00 Fair CLR 82.4 73.4 74% 88 30.04 0.0
31 15:55 W 9 10.00 Fair CLR 82.4 73.4 74% 88 30.05 0.0
31 15:35 SW 7 G 14 10.00 Fair CLR 82.4 73.4 74% 88 30.06 0.0
31 15:15 SW 9 10.00 Fair CLR 82.4 73.4 74% 88 30.06 0.0
31 14:55 W 10 10.00 Fair CLR 82.4 71.6 70% 87 30.07 0.0
31 14:35 SW 9 10.00 Fair CLR 82.4 73.4 74% 88 30.07 0.0
31 14:15 SW 9 10.00 Fair CLR 82.4 73.4 74% 88 30.07 0.0
31 13:55 W 13 10.00 Fair CLR 84.2 73.4 70% 91 30.08 0.0
31 13:35 W 10 10.00 Fair CLR 84.2 75.2 74% 92 30.09 0.0
31 13:15 W 10 G 16 10.00 Fair CLR 84.2 73.4 70% 91 30.1 0.0
31 12:55 W 8 G 15 10.00 Fair CLR 84.2 73.4 70% 91 30.09 0.0
31 12:35 W 9 10.00 Fair CLR 84.2 75.2 74% 92 30.1 0.0
31 12:15 W 10 G 18 10.00 Fair CLR 84.2 73.4 70% 91 30.09 0.0
31 11:55 W 14 10.00 Fair CLR 86 73.4 66% 93 30.09 0.0
31 11:35 W 10 10.00 Fair CLR 84.2 73.4 70% 91 30.1 0.0
31 11:15 W 8 G 18 10.00 Fair CLR 82.4 73.4 74% 88 30.1 0.0
31 10:55 SW 7 10.00 Fair CLR 82.4 71.6 70% 87 30.09 0.0
31 10:35 SW 9 10.00 Fair CLR 80.6 71.6 74% 85 30.09 0.0
31 10:15 SW 10 10.00 Fair CLR 77 71.6 83% 78 30.08 0.0
31 09:55 SW 9 10.00 Fair CLR 77 71.6 83% 78 30.08 0.0
31 09:35 SW 8 10.00 Fair CLR 75.2 69.8 83% 75 30.08 0.0
31 09:15 SW 8 10.00 Fair CLR 75.2 69.8 83% 75 30.08 0.0
31 08:55 SW 10 10.00 Fair CLR 75.2 69.8 83% 75 30.08 0.0
31 08:35 Calm 10.00 Partly Cloudy FEW038 FEW048 SCT110 73.4 69.8 89% 0 0.0
31 08:15 SW 7 10.00 Mostly Cloudy SCT100 BKN120 73.4 68 83% 30.07 0.0
31 07:55 SW 7 10.00 Mostly Cloudy BKN095 BKN120 73.4 68 83% 30.07 0.0
31 07:35 SW 7 10.00 Mostly Cloudy BKN100 BKN120 73.4 68 83% 30.07 0.0
31 07:15 SW 8 10.00 Overcast FEW040 SCT055 OVC100 73.4 68 83% 30.07 0.0
31 06:55 SW 7 10.00 Mostly Cloudy FEW040 SCT055 BKN070 71.6 69.8 94% 30.07 0.0
31 06:35 SW 7 10.00 Overcast FEW041 SCT075 OVC100 71.6 69.8 94% 30.06 0.0
31 06:15 S 5 10.00 Mostly Cloudy FEW045 SCT060 BKN070 71.6 68 88% 30.05 0.0
31 05:55 S 9 10.00 Overcast FEW047 SCT075 OVC100 71.6 68 88% 30.04 0.0
31 05:35 SW 6 10.00 Overcast SCT048 BKN070 OVC100 71.6 68 88% 30.06 0.0
31 05:15 SW 5 10.00 Overcast FEW050 BKN065 OVC100 73.4 68 83% 30.06 0.0
31 04:55 S 5 10.00 Overcast FEW044 SCT065 OVC110 73.4 66.2 78% 30.06 0.0
31 04:35 S 5 10.00 Overcast FEW075 FEW090 OVC120 73.4 66.2 78% 30.06 0.0
31 04:15 S 3 10.00 Mostly Cloudy FEW075 SCT090 BKN110 71.6 66.2 83% 30.06 0.0
31 03:55 Calm 10.00 Partly Cloudy FEW042 FEW065 SCT080 73.4 66.2 78% 30.06 0.0
31 03:35 S 3 10.00 Partly Cloudy FEW042 FEW065 SCT095 73.4 66.2 78% 30.06 0.0
31 03:15 S 8 10.00 Fair CLR 73.4 66.2 78% 30.06 0.0
31 02:55 S 6 10.00 A Few Clouds FEW110 71.6 66.2 83% 30.07 0.0
31 02:35 S 5 10.00 Fair CLR 71.6 66.2 83% 30.07 0.0
31 02:15 S 8 10.00 A Few Clouds FEW085 FEW120 71.6 66.2 83% 30.08 0.0
31 01:55 S 5 10.00 Mostly Cloudy FEW060 SCT075 BKN090 73.4 66.2 78% 30.08 0.0
31 01:35 S 5 10.00 Overcast BKN065 BKN075 OVC100 71.6 68 88% 30.08 0.0
31 01:15 S 3 10.00 Overcast FEW070 OVC110 73.4 68 83% 30.08 0.0
31 00:55 S 7 10.00 Mostly Cloudy BKN110 73.4 68 83% 30.08 0.0
31 00:35 S 6 10.00 Fair CLR 71.6 69.8 94% 30.08 0.0
31 00:15 SE 6 10.00 Fair CLR 71.6 69.8 94% 30.08 0.0
30 23:55 SE 5 10.00 Fair CLR 71.6 69.8 94% 30.09 0.0
30 23:35 SE 3 10.00 Fair CLR 69.8 69.8 100% 30.09 0.0
30 23:15 Calm 10.00 Fair CLR 69.8 69.8 100% 30.09 0.0
30 22:55 SE 3 10.00 Fair CLR 71.6 71.6 100% 30.09 0.0
30 22:35 Calm 10.00 NULL NULL 71.6 71.6 100% 30.09 0.0
30 22:15 Calm 10.00 Fair CLR 71.6 69.8 94% 30.09 0.0
30 21:55 SE 5 10.00 Fair CLR 73.4 71.6 94% 30.08 0.0
30 21:35 SE 5 10.00 Fair CLR 71.6 69.8 94% 30.08 0.0
30 21:15 SE 5 10.00 Fair CLR 71.6 71.6 100% 30.08 0.0
30 20:55 Calm 10.00 Partly Cloudy SCT120 71.6 71.6 100% 30.09 0.0
30 20:35 Calm 10.00 Overcast OVC110 73.4 71.6 94% 30.08 0.0
30 20:15 Calm 10.00 Overcast OVC110 75.2 71.6 89% 75 30.09 0.0
30 19:55 Calm 10.00 Overcast OVC110 77 71.6 83% 78 30.09 0.0
30 19:35 Calm 10.00 Overcast FEW045 OVC110 77 69.8 79% 79 30.09 0.0
30 19:15 NW 5 10.00 Mostly Cloudy FEW045 BKN110 78.8 71.6 79% 82 30.09 0.0
30 18:55 SW 7 10.00 A Few Clouds FEW120 78.8 71.6 79% 82 30.07 0.0
30 18:35 SW 5 10.00 Fair CLR 80.6 73.4 79% 85 30.06 0.0
30 18:15 S 5 10.00 Fair CLR 78.8 71.6 79% 82 30.05 0.0
30 17:55 SE 5 10.00 Fair CLR 78.8 71.6 79% 82 30.05 0.0
30 17:35 S 5 10.00 Fair CLR 78.8 71.6 79% 82 30.06 0.0
30 17:15 S 7 10.00 Fair CLR 78.8 71.6 79% 82 30.05 0.0
30 16:55 SE 5 10.00 Fair CLR 77 69.8 79% 79 30.05 0.0
30 16:35 SE 3 10.00 A Few Clouds FEW120 77 69.8 79% 79 30.05 0.0
30 16:15 SE 5 10.00 Fair CLR 75.2 69.8 83% 75 30.06 0.0
30 15:55 Calm 10.00 NULL NULL 75.2 69.8 83% 75 30.06 0.0
30 15:35 Vrbl 5 10.00 NULL NULL 0 0 0% 30.06 0.0
30 15:15 S 8 10.00 Fair CLR 73.4 69.8 89% 30.05 0.0
30 14:55 S 10 G 18 9.00 Fair CLR 73.4 69.8 89% 30.07 0.0 0.01
30 14:35 S 6 7.00 Partly Cloudy FEW044 FEW055 SCT065 73.4 71.6 94% 30.13 0.0
30 14:15 Calm 10.00 A Few Clouds FEW110 75.2 69.8 83% 75 30.15 0.0
30 13:55 Calm 10.00 A Few Clouds FEW110 75.2 69.8 83% 75 30.16 0.0
30 13:35 Calm 10.00 A Few Clouds FEW110 73.4 69.8 89% 30.16 0.0
30 13:15 N 6 10.00 Fair CLR 73.4 69.8 89% 30.16 0.0
30 12:55 Calm 10.00 Fair CLR 75.2 69.8 83% 75 30.16 0.0 0.01
30 12:35 SE 5 10.00 Fair CLR 73.4 69.8 89% 30.16 0.0
30 12:15 Calm 8.00 A Few Clouds FEW060 73.4 69.8 89% 30.18 0.0
30 11:55 NW 6 6.00 Fog/Mist SCT060 BKN095 73.4 69.8 89% 30.19 0.0
30 11:35 Calm 10.00 Overcast OVC095 73.4 69.8 89% 30.17 0.0
30 11:15 Calm 10.00 Partly Cloudy SCT095 73.4 68 83% 30.15 0.0
30 10:55 Calm 10.00 Fair CLR 73.4 69.8 89% 30.13 0.0
30 10:35 SW 5 10.00 NULL NULL 73.4 68 83% 30.12 0.0
30 09:55 SW 6 10.00 Fair CLR 73.4 68 83% 30.11 0.0
30 09:35 S 5 10.00 Fair CLR 71.6 68 88% 30.1 0.0
30 09:15 S 5 10.00 Fair CLR 71.6 66.2 83% 30.1 0.0
30 08:55 S 6 10.00 Fair CLR 71.6 66.2 83% 30.1 0.0
30 08:35 S 7 10.00 Fair CLR 69.8 66.2 88% 30.1 0.0
30 08:15 S 6 10.00 NULL NULL 69.8 64.4 83% 30.1 0.0
30 07:55 S 5 10.00 Mostly Cloudy BKN100 69.8 64.4 83% 30.11 0.0
30 07:35 Calm 10.00 Overcast OVC100 69.8 64.4 83% 30.12 0.0
30 07:15 Calm 10.00 Overcast OVC100 68 66.2 94% 30.12 0.0
30 06:55 Calm 10.00 NULL NULL 68 66.2 94% 30.12 0.0
30 06:35 Calm 10.00 NULL NULL 68 64.4 88% 30.11 0.0
30 06:15 Calm 10.00 Overcast FEW037 SCT055 OVC110 69.8 64.4 83% 30.11 0.0
30 05:55 Calm 10.00 Overcast FEW033 SCT055 OVC100 68 64.4 88% 30.11 0.0
30 05:35 S 3 10.00 Overcast OVC100 69.8 64.4 83% 30.1 0.0
30 05:15 S 6 10.00 Overcast OVC100 69.8 64.4 83% 30.1 0.0
30 04:55 S 5 10.00 Overcast FEW070 OVC100 69.8 64.4 83% 30.1 0.0
30 04:35 S 7 10.00 Overcast SCT070 BKN095 OVC110 69.8 64.4 83% 30.1 0.0
30 04:15 S 7 10.00 Overcast FEW037 SCT075 OVC110 69.8 64.4 83% 30.1 0.0
30 03:35 S 8 10.00 Partly Cloudy SCT120 69.8 64.4 83% 30.11 0.0
30 03:15 S 7 10.00 Mostly Cloudy BKN120 69.8 64.4 83% 30.11 0.0
30 02:55 S 8 10.00 Mostly Cloudy BKN120 69.8 64.4 83% 30.11 0.0
30 02:35 S 8 10.00 Fair CLR 69.8 64.4 83% 30.11 0.0
30 02:15 S 5 10.00 NULL NULL 68 62.6 83% 30.12 0.0
30 01:55 S 6 10.00 NULL NULL 68 62.6 83% 30.12 0.0
30 01:35 S 6 10.00 NULL NULL 68 62.6 83% 30.12 0.0
30 00:55 S 6 10.00 Partly Cloudy SCT048 68 62.6 83% 30.12 0.0
30 00:35 S 5 10.00 Partly Cloudy SCT047 68 64.4 88% 30.12 0.0
30 00:15 S 5 10.00 NULL NULL 68 64.4 88% 30.12 0.0
29 23:35 Calm 10.00 Partly Cloudy SCT048 69.8 64.4 83% 30.11 0.0
29 23:15 S 5 10.00 Mostly Cloudy BKN050 68 66.2 94% 30.11 0.0
29 22:55 Calm 10.00 Mostly Cloudy BKN050 68 66.2 94% 30.12 0.0
29 22:35 Calm 10.00 A Few Clouds FEW050 68 66.2 94% 30.12 0.0
29 22:15 S 5 10.00 Fair CLR 68 66.2 94% 30.11 0.0
29 21:55 SE 5 10.00 Fair CLR 68 66.2 94% 30.11 0.0
29 21:35 Calm 10.00 A Few Clouds FEW050 68 68 100% 30.11 0.0
29 21:15 Calm 10.00 A Few Clouds FEW050 68 68 100% 30.11 0.0
29 20:55 Calm 10.00 Fair CLR 69.8 69.8 100% 30.1 0.0
29 20:35 Calm 10.00 Fair CLR 69.8 68 94% 30.1 0.0
29 20:15 Calm 10.00 Fair CLR 71.6 68 88% 30.11 0.0
29 19:55 Calm 10.00 Fair CLR 73.4 69.8 89% 30.11 0.0
29 19:35 Calm 10.00 Fair CLR 73.4 69.8 89% 30.12 0.0
29 19:15 Calm 10.00 Fair CLR 75.2 68 78% 76 30.12 0.0
29 18:55 Calm 10.00 Fair CLR 75.2 69.8 83% 75 30.12 0.0
29 18:35 Calm 10.00 A Few Clouds FEW046 77 64.4 65% 79 30.12 0.0
29 18:15 Calm 10.00 A Few Clouds FEW047 FEW055 78.8 66.2 65% 81 30.13 0.0
29 17:55 Calm 10.00 Mostly Cloudy SCT050 BKN060 78.8 66.2 65% 81 30.13 0.0
29 17:35 SW 3 10.00 Partly Cloudy FEW050 SCT060 80.6 62.6 54% 82 30.13 0.0
29 17:15 Calm 10.00 Partly Cloudy FEW050 SCT060 80.6 64.4 58% 82 30.13 0.0
29 16:55 Calm 10.00 Mostly Cloudy BKN050 BKN065 80.6 64.4 58% 82 30.14 0.0
29 16:35 S 5 10.00 Partly Cloudy SCT046 SCT055 SCT065 80.6 64.4 58% 82 30.14 0.0
29 16:15 SE 6 10.00 Mostly Cloudy BKN044 BKN050 80.6 64.4 58% 82 30.14 0.0
29 15:55 Calm 10.00 Mostly Cloudy SCT046 SCT055 BKN065 80.6 62.6 54% 82 30.14 0.0
29 15:35 Vrbl 3 10.00 A Few Clouds FEW065 80.6 62.6 54% 82 30.16 0.0
29 15:15 SW 5 10.00 A Few Clouds FEW055 80.6 64.4 58% 82 30.16 0.0
29 14:55 S 6 10.00 A Few Clouds FEW050 80.6 64.4 58% 82 30.16 0.0
29 14:35 SE 8 10.00 Fair CLR 78.8 64.4 61% 81 30.17 0.0
29 14:15 Calm 10.00 A Few Clouds FEW044 FEW055 78.8 62.6 58% 80 30.17 0.0
29 13:55 S 8 10.00 Partly Cloudy SCT045 SCT055 78.8 64.4 61% 81 30.18 0.0
29 13:35 Calm 10.00 Partly Cloudy SCT046 SCT060 78.8 60.8 54% 80 30.18 0.0
29 13:15 Calm 10.00 A Few Clouds FEW040 77 62.6 61% 79 30.19 0.0
29 12:55 S 6 10.00 Fair CLR 78.8 64.4 61% 81 30.2 0.0
29 12:35 Calm 10.00 Fair CLR 77 64.4 65% 79 30.21 0.0
29 12:15 Vrbl 3 10.00 Fair CLR 77 64.4 65% 79 30.22 0.0
29 11:55 S 8 10.00 Fair CLR 75.2 62.6 65% 77 30.22 0.0
29 11:35 S 9 10.00 Fair CLR 75.2 62.6 65% 77 30.21 0.0
29 11:15 S 10 10.00 Fair CLR 73.4 62.6 69% 30.21 0.0
29 10:55 S 8 10.00 Fair CLR 71.6 62.6 73% 30.21 0.0
29 10:35 S 9 10.00 Fair CLR 69.8 59 69% 30.21 0.0
29 10:15 S 9 10.00 Fair CLR 69.8 59 69% 30.2 0.0
29 09:55 S 7 10.00 Fair CLR 68 59 73% 30.21 0.0
29 09:35 S 6 G 12 10.00 A Few Clouds FEW050 FEW060 66.2 57.2 73% 30.22 0.0
29 09:15 S 7 10.00 Partly Cloudy FEW050 SCT060 66.2 57.2 73% 30.21 0.0
29 08:55 S 6 10.00 Partly Cloudy FEW050 SCT055 66.2 57.2 73% 30.22 0.0
29 08:35 S 7 10.00 Mostly Cloudy BKN050 64.4 59 83% 30.21 0.0
29 08:15 SE 6 10.00 Overcast OVC050 62.6 57.2 83% 30.21 0.0
29 07:55 SE 3 10.00 Mostly Cloudy BKN050 60.8 57.2 88% 0 0.0
29 07:35 SE 5 10.00 A Few Clouds FEW050 60.8 57.2 88% 30.19 0.0
29 07:15 Vrbl 5 10.00 Fair CLR 59 55.4 88% 30.19 0.0
29 06:55 E 3 10.00 A Few Clouds FEW050 57.2 55.4 94% 30.18 0.0
29 06:35 E 3 10.00 Partly Cloudy SCT049 57.2 55.4 94% 30.18 0.0
29 06:15 Calm 10.00 A Few Clouds FEW050 57.2 55.4 94% 30.18 0.0
29 05:55 Calm 10.00 A Few Clouds FEW049 59 55.4 88% 30.18 0.0
29 05:35 Vrbl 5 10.00 A Few Clouds FEW050 57.2 55.4 94% 30.18 0.0
29 05:15 Calm 10.00 A Few Clouds FEW050 55.4 55.4 100% 30.18 0.0
29 04:55 Calm 10.00 A Few Clouds FEW050 55.4 55.4 100% 30.18 0.0
29 04:35 Calm 10.00 A Few Clouds FEW050 55.4 55.4 100% 30.18 0.0
29 04:15 Calm 10.00 A Few Clouds FEW049 FEW055 55.4 55.4 100% 30.18 0.0
29 03:55 Calm 10.00 A Few Clouds FEW050 55.4 55.4 100% 30.18 0.0
29 03:35 Calm 10.00 Fair CLR 55.4 55.4 100% 30.18 0.0
29 03:15 Calm 10.00 Fair CLR 55.4 55.4 100% 30.18 0.0
29 02:55 Calm 10.00 Fair CLR 55.4 55.4 100% 30.18 0.0
29 02:35 Calm 10.00 Fair CLR 55.4 55.4 100% 30.18 0.0
29 02:15 Calm 10.00 Fair CLR 55.4 55.4 100% 30.18 0.0
29 01:55 Calm 10.00 Fair CLR 57.2 57.2 100% 30.18 0.0
29 01:35 Calm 10.00 Fair CLR 57.2 57.2 100% 30.18 0.0
29 01:15 Calm 9.00 NULL NULL 57.2 57.2 100% 30.18 0.0
29 00:55 Calm 10.00 NULL NULL 57.2 57.2 100% 30.18 0.0
29 00:35 Calm 10.00 NULL NULL 57.2 57.2 100% 30.18 0.0
29 00:15 Calm 10.00 Fair CLR 57.2 57.2 100% 30.18 0.0
28 23:55 Calm 10.00 Fair CLR 57.2 57.2 100% 30.18 0.0
28 23:35 Calm 10.00 Fair CLR 59 57.2 94% 30.18 0.0
28 23:15 Calm 10.00 Fair CLR 59 57.2 94% 30.18 0.0
Date Time (edt) Wind (mph) Vis. (mi.) Weather Sky Cond. Air Dwpt Max. Min. Relative Humidity Wind Chill (°F) Heat Index (°F) altimeter (in) sea level (mb) 1 hr 3 hr 6 hr
6 hour
Temperature (ºF) Pressure Precipitation (in)